Adelphia, New Jersey
Current Conditions -  °F | °C
As of 5:15 AM on Thursday 23 Oct 2014 (Local Time) from KBLM Reporting Station
Overcast Overcast  
Wind Chill: 52°   Ceiling: 2000
Heat Index: 52°   Visibility: 10mi
Dew Point: 45°   Wind: 18mph
Humidity: 76%   Direction: 350°N
Pressure: 29.68"   Gusts: 24mph
Location:  40.22°N, 74.26°W
Report Text: KBLM 230915Z AUTO 35016G21KT 10SM OVC020 11/07 A2968 RMK AO1
Loading
Personal Weather Stations






























Interactive Weather Map
Tropical Storm Tracking
New forecast layout! Learn more

10-Day Weather Forecast

Advertisements
Track Severe Weather on mobile